sensor_id;sensor_type;location;lat;lon;timestamp;P1;durP1;ratioP1;P2;durP2;ratioP2
3311;SDS011;1668;49.648;8.570;2023-08-21T00:02:09;11.17;;;6.77;;
3311;SDS011;1668;49.648;8.570;2023-08-21T00:04:36;13.23;;;6.63;;
3311;SDS011;1668;49.648;8.570;2023-08-21T00:07:02;11.53;;;7.30;;
3311;SDS011;1668;49.648;8.570;2023-08-21T00:09:31;9.10;;;6.53;;
3311;SDS011;1668;49.648;8.570;2023-08-21T00:12:00;8.27;;;6.40;;
3311;SDS011;1668;49.648;8.570;2023-08-21T00:14:27;10.53;;;6.80;;
3311;SDS011;1668;49.648;8.570;2023-08-21T00:16:54;9.17;;;6.87;;
3311;SDS011;1668;49.648;8.570;2023-08-21T00:19:21;8.77;;;6.17;;
3311;SDS011;1668;49.648;8.570;2023-08-21T00:21:48;11.93;;;6.80;;
3311;SDS011;1668;49.648;8.570;2023-08-21T00:24:15;8.70;;;6.37;;
3311;SDS011;1668;49.648;8.570;2023-08-21T00:26:42;11.37;;;7.63;;
3311;SDS011;1668;49.648;8.570;2023-08-21T00:29:10;12.90;;;6.90;;
3311;SDS011;1668;49.648;8.570;2023-08-21T00:31:38;8.80;;;7.60;;
3311;SDS011;1668;49.648;8.570;2023-08-21T00:34:05;10.40;;;7.03;;
3311;SDS011;1668;49.648;8.570;2023-08-21T00:36:32;10.03;;;7.23;;
3311;SDS011;1668;49.648;8.570;2023-08-21T00:38:59;13.37;;;6.77;;
3311;SDS011;1668;49.648;8.570;2023-08-21T00:41:25;12.63;;;6.83;;
3311;SDS011;1668;49.648;8.570;2023-08-21T00:43:52;9.83;;;6.67;;
3311;SDS011;1668;49.648;8.570;2023-08-21T00:46:21;13.27;;;7.30;;
3311;SDS011;1668;49.648;8.570;2023-08-21T00:48:48;8.53;;;6.87;;
3311;SDS011;1668;49.648;8.570;2023-08-21T00:51:15;7.53;;;6.43;;
3311;SDS011;1668;49.648;8.570;2023-08-21T00:53:43;8.47;;;6.57;;
3311;SDS011;1668;49.648;8.570;2023-08-21T00:56:11;10.00;;;6.93;;
3311;SDS011;1668;49.648;8.570;2023-08-21T00:58:39;10.30;;;6.50;;
3311;SDS011;1668;49.648;8.570;2023-08-21T01:01:08;8.40;;;6.33;;
3311;SDS011;1668;49.648;8.570;2023-08-21T01:03:36;8.17;;;6.30;;
3311;SDS011;1668;49.648;8.570;2023-08-21T01:06:04;7.00;;;6.00;;
3311;SDS011;1668;49.648;8.570;2023-08-21T01:08:34;7.67;;;6.03;;
3311;SDS011;1668;49.648;8.570;2023-08-21T01:11:10;10.00;;;6.57;;
3311;SDS011;1668;49.648;8.570;2023-08-21T01:13:44;9.93;;;6.87;;
3311;SDS011;1668;49.648;8.570;2023-08-21T01:16:18;15.67;;;6.90;;
3311;SDS011;1668;49.648;8.570;2023-08-21T01:18:48;10.03;;;6.53;;
3311;SDS011;1668;49.648;8.570;2023-08-21T01:21:16;8.53;;;6.67;;
3311;SDS011;1668;49.648;8.570;2023-08-21T01:23:45;7.47;;;6.30;;
3311;SDS011;1668;49.648;8.570;2023-08-21T01:26:12;8.50;;;6.67;;
3311;SDS011;1668;49.648;8.570;2023-08-21T01:28:40;8.83;;;6.33;;
3311;SDS011;1668;49.648;8.570;2023-08-21T01:31:09;11.13;;;6.87;;
3311;SDS011;1668;49.648;8.570;2023-08-21T01:33:44;8.67;;;6.27;;
3311;SDS011;1668;49.648;8.570;2023-08-21T01:36:12;11.93;;;6.60;;
3311;SDS011;1668;49.648;8.570;2023-08-21T01:38:40;8.23;;;6.83;;
3311;SDS011;1668;49.648;8.570;2023-08-21T01:41:08;12.67;;;6.80;;
3311;SDS011;1668;49.648;8.570;2023-08-21T01:43:35;11.17;;;6.50;;
3311;SDS011;1668;49.648;8.570;2023-08-21T01:46:02;11.60;;;6.60;;
3311;SDS011;1668;49.648;8.570;2023-08-21T01:48:29;7.70;;;5.93;;
3311;SDS011;1668;49.648;8.570;2023-08-21T01:50:56;11.00;;;6.50;;
3311;SDS011;1668;49.648;8.570;2023-08-21T01:53:23;9.40;;;6.93;;
3311;SDS011;1668;49.648;8.570;2023-08-21T01:55:51;9.00;;;7.00;;
3311;SDS011;1668;49.648;8.570;2023-08-21T01:58:19;7.93;;;7.13;;
3311;SDS011;1668;49.648;8.570;2023-08-21T02:00:46;10.43;;;7.63;;
3311;SDS011;1668;49.648;8.570;2023-08-21T02:03:13;9.00;;;6.90;;
3311;SDS011;1668;49.648;8.570;2023-08-21T02:05:40;8.20;;;6.80;;
3311;SDS011;1668;49.648;8.570;2023-08-21T02:08:09;11.97;;;6.60;;
3311;SDS011;1668;49.648;8.570;2023-08-21T02:10:46;9.20;;;6.60;;
3311;SDS011;1668;49.648;8.570;2023-08-21T02:13:14;12.20;;;7.00;;
3311;SDS011;1668;49.648;8.570;2023-08-21T02:15:42;8.53;;;6.93;;
3311;SDS011;1668;49.648;8.570;2023-08-21T02:18:09;10.17;;;7.10;;
3311;SDS011;1668;49.648;8.570;2023-08-21T02:20:36;8.47;;;6.73;;
3311;SDS011;1668;49.648;8.570;2023-08-21T02:23:03;9.80;;;7.20;;
3311;SDS011;1668;49.648;8.570;2023-08-21T02:25:31;8.53;;;6.80;;
3311;SDS011;1668;49.648;8.570;2023-08-21T02:27:57;10.27;;;6.80;;
3311;SDS011;1668;49.648;8.570;2023-08-21T02:30:26;11.60;;;6.83;;
3311;SDS011;1668;49.648;8.570;2023-08-21T02:32:55;9.97;;;7.00;;
3311;SDS011;1668;49.648;8.570;2023-08-21T02:35:22;9.17;;;7.10;;
3311;SDS011;1668;49.648;8.570;2023-08-21T02:37:49;8.60;;;7.43;;
3311;SDS011;1668;49.648;8.570;2023-08-21T02:40:16;11.93;;;7.60;;
3311;SDS011;1668;49.648;8.570;2023-08-21T02:42:43;7.17;;;6.47;;
3311;SDS011;1668;49.648;8.570;2023-08-21T02:45:10;12.10;;;7.23;;
3311;SDS011;1668;49.648;8.570;2023-08-21T02:47:38;8.93;;;7.03;;
3311;SDS011;1668;49.648;8.570;2023-08-21T02:50:08;11.53;;;7.10;;
3311;SDS011;1668;49.648;8.570;2023-08-21T02:52:36;10.00;;;7.30;;
3311;SDS011;1668;49.648;8.570;2023-08-21T02:55:04;11.13;;;7.60;;
3311;SDS011;1668;49.648;8.570;2023-08-21T02:57:33;21.07;;;7.30;;
3311;SDS011;1668;49.648;8.570;2023-08-21T03:00:00;7.80;;;7.00;;
3311;SDS011;1668;49.648;8.570;2023-08-21T03:02:27;9.87;;;7.03;;
3311;SDS011;1668;49.648;8.570;2023-08-21T03:04:55;8.13;;;7.33;;
3311;SDS011;1668;49.648;8.570;2023-08-21T03:07:23;9.93;;;7.17;;
3311;SDS011;1668;49.648;8.570;2023-08-21T03:09:50;12.13;;;7.63;;
3311;SDS011;1668;49.648;8.570;2023-08-21T03:12:17;9.23;;;8.23;;
3311;SDS011;1668;49.648;8.570;2023-08-21T03:14:45;9.10;;;7.30;;
3311;SDS011;1668;49.648;8.570;2023-08-21T03:17:12;10.77;;;8.10;;
3311;SDS011;1668;49.648;8.570;2023-08-21T03:19:39;12.30;;;7.70;;
3311;SDS011;1668;49.648;8.570;2023-08-21T03:22:06;10.63;;;8.70;;
3311;SDS011;1668;49.648;8.570;2023-08-21T03:24:34;11.73;;;8.07;;
3311;SDS011;1668;49.648;8.570;2023-08-21T03:27:01;8.80;;;7.70;;
3311;SDS011;1668;49.648;8.570;2023-08-21T03:29:28;14.90;;;8.63;;
3311;SDS011;1668;49.648;8.570;2023-08-21T03:31:56;9.00;;;7.80;;
3311;SDS011;1668;49.648;8.570;2023-08-21T03:34:23;7.67;;;6.87;;
3311;SDS011;1668;49.648;8.570;2023-08-21T03:36:50;11.07;;;9.00;;
3311;SDS011;1668;49.648;8.570;2023-08-21T03:39:17;16.50;;;8.20;;
3311;SDS011;1668;49.648;8.570;2023-08-21T03:41:45;15.00;;;8.03;;
3311;SDS011;1668;49.648;8.570;2023-08-21T03:44:12;13.73;;;7.93;;
3311;SDS011;1668;49.648;8.570;2023-08-21T03:46:39;9.40;;;7.50;;
3311;SDS011;1668;49.648;8.570;2023-08-21T03:49:06;13.43;;;7.73;;
3311;SDS011;1668;49.648;8.570;2023-08-21T03:51:33;11.07;;;8.13;;
3311;SDS011;1668;49.648;8.570;2023-08-21T03:54:00;9.20;;;8.00;;
3311;SDS011;1668;49.648;8.570;2023-08-21T03:56:28;9.30;;;7.80;;
3311;SDS011;1668;49.648;8.570;2023-08-21T03:58:57;13.97;;;9.17;;
3311;SDS011;1668;49.648;8.570;2023-08-21T04:01:24;11.07;;;8.10;;
3311;SDS011;1668;49.648;8.570;2023-08-21T04:03:51;10.20;;;8.40;;
3311;SDS011;1668;49.648;8.570;2023-08-21T04:06:18;9.63;;;7.70;;
3311;SDS011;1668;49.648;8.570;2023-08-21T04:08:45;10.57;;;9.10;;
3311;SDS011;1668;49.648;8.570;2023-08-21T04:11:12;11.00;;;9.00;;
3311;SDS011;1668;49.648;8.570;2023-08-21T04:13:38;12.73;;;8.47;;
3311;SDS011;1668;49.648;8.570;2023-08-21T04:16:07;11.03;;;8.20;;
3311;SDS011;1668;49.648;8.570;2023-08-21T04:18:35;11.63;;;9.00;;
3311;SDS011;1668;49.648;8.570;2023-08-21T04:21:03;11.10;;;8.50;;
3311;SDS011;1668;49.648;8.570;2023-08-21T04:23:31;11.23;;;8.50;;
3311;SDS011;1668;49.648;8.570;2023-08-21T04:25:59;10.93;;;8.47;;
3311;SDS011;1668;49.648;8.570;2023-08-21T04:28:27;9.30;;;8.10;;
3311;SDS011;1668;49.648;8.570;2023-08-21T04:30:56;13.20;;;9.10;;
3311;SDS011;1668;49.648;8.570;2023-08-21T04:33:24;11.80;;;8.90;;
3311;SDS011;1668;49.648;8.570;2023-08-21T04:35:51;15.20;;;9.73;;
3311;SDS011;1668;49.648;8.570;2023-08-21T04:38:18;15.47;;;9.50;;
3311;SDS011;1668;49.648;8.570;2023-08-21T04:40:45;11.90;;;9.20;;
3311;SDS011;1668;49.648;8.570;2023-08-21T04:43:12;12.43;;;8.33;;
3311;SDS011;1668;49.648;8.570;2023-08-21T04:45:45;11.07;;;8.33;;
3311;SDS011;1668;49.648;8.570;2023-08-21T04:48:13;10.20;;;8.47;;
3311;SDS011;1668;49.648;8.570;2023-08-21T04:50:42;13.13;;;9.20;;
3311;SDS011;1668;49.648;8.570;2023-08-21T04:53:09;11.97;;;8.60;;
3311;SDS011;1668;49.648;8.570;2023-08-21T04:55:36;14.00;;;9.60;;
3311;SDS011;1668;49.648;8.570;2023-08-21T04:58:05;14.03;;;8.80;;
3311;SDS011;1668;49.648;8.570;2023-08-21T05:00:32;10.57;;;9.20;;
3311;SDS011;1668;49.648;8.570;2023-08-21T05:02:59;10.23;;;9.23;;
3311;SDS011;1668;49.648;8.570;2023-08-21T05:05:27;11.60;;;9.80;;
3311;SDS011;1668;49.648;8.570;2023-08-21T05:07:55;11.70;;;8.73;;
3311;SDS011;1668;49.648;8.570;2023-08-21T05:10:22;11.40;;;9.60;;
3311;SDS011;1668;49.648;8.570;2023-08-21T05:12:49;10.43;;;9.33;;
3311;SDS011;1668;49.648;8.570;2023-08-21T05:15:16;11.37;;;10.20;;
3311;SDS011;1668;49.648;8.570;2023-08-21T05:17:43;12.70;;;9.17;;
3311;SDS011;1668;49.648;8.570;2023-08-21T05:20:10;12.53;;;8.90;;
3311;SDS011;1668;49.648;8.570;2023-08-21T05:22:39;10.67;;;9.30;;
3311;SDS011;1668;49.648;8.570;2023-08-21T05:25:08;11.63;;;9.63;;
3311;SDS011;1668;49.648;8.570;2023-08-21T05:27:36;12.50;;;8.90;;
3311;SDS011;1668;49.648;8.570;2023-08-21T05:30:03;16.70;;;9.93;;
3311;SDS011;1668;49.648;8.570;2023-08-21T05:32:32;10.53;;;9.07;;
3311;SDS011;1668;49.648;8.570;2023-08-21T05:34:59;12.60;;;9.10;;
3311;SDS011;1668;49.648;8.570;2023-08-21T05:37:26;12.70;;;8.97;;
3311;SDS011;1668;49.648;8.570;2023-08-21T05:39:54;16.83;;;9.90;;
3311;SDS011;1668;49.648;8.570;2023-08-21T05:42:22;11.17;;;9.53;;
3311;SDS011;1668;49.648;8.570;2023-08-21T05:44:49;13.10;;;10.00;;
3311;SDS011;1668;49.648;8.570;2023-08-21T05:47:16;14.10;;;10.03;;
3311;SDS011;1668;49.648;8.570;2023-08-21T05:49:44;16.93;;;9.80;;
3311;SDS011;1668;49.648;8.570;2023-08-21T05:52:12;14.00;;;10.13;;
3311;SDS011;1668;49.648;8.570;2023-08-21T05:54:39;13.43;;;10.07;;
3311;SDS011;1668;49.648;8.570;2023-08-21T05:57:06;15.13;;;9.60;;
3311;SDS011;1668;49.648;8.570;2023-08-21T05:59:35;16.43;;;9.90;;
3311;SDS011;1668;49.648;8.570;2023-08-21T06:02:09;13.43;;;8.60;;
3311;SDS011;1668;49.648;8.570;2023-08-21T06:04:35;16.20;;;9.70;;
3311;SDS011;1668;49.648;8.570;2023-08-21T06:07:03;10.10;;;8.93;;
3311;SDS011;1668;49.648;8.570;2023-08-21T06:09:30;11.43;;;9.30;;
3311;SDS011;1668;49.648;8.570;2023-08-21T06:11:58;15.43;;;10.30;;
3311;SDS011;1668;49.648;8.570;2023-08-21T06:14:26;14.90;;;9.47;;
3311;SDS011;1668;49.648;8.570;2023-08-21T06:16:56;11.73;;;9.33;;
3311;SDS011;1668;49.648;8.570;2023-08-21T06:19:23;12.33;;;9.27;;
3311;SDS011;1668;49.648;8.570;2023-08-21T06:21:50;10.57;;;9.30;;
3311;SDS011;1668;49.648;8.570;2023-08-21T06:24:17;11.30;;;9.60;;
3311;SDS011;1668;49.648;8.570;2023-08-21T06:26:44;14.30;;;9.10;;
3311;SDS011;1668;49.648;8.570;2023-08-21T06:29:11;11.33;;;9.67;;
3311;SDS011;1668;49.648;8.570;2023-08-21T06:31:37;10.87;;;9.77;;
3311;SDS011;1668;49.648;8.570;2023-08-21T06:34:06;15.47;;;9.70;;
3311;SDS011;1668;49.648;8.570;2023-08-21T06:36:32;10.37;;;8.90;;
3311;SDS011;1668;49.648;8.570;2023-08-21T06:38:59;13.97;;;9.67;;
3311;SDS011;1668;49.648;8.570;2023-08-21T06:41:26;12.63;;;9.40;;
3311;SDS011;1668;49.648;8.570;2023-08-21T06:43:53;11.23;;;9.00;;
3311;SDS011;1668;49.648;8.570;2023-08-21T06:46:20;12.27;;;10.43;;
3311;SDS011;1668;49.648;8.570;2023-08-21T06:48:47;10.60;;;9.20;;
3311;SDS011;1668;49.648;8.570;2023-08-21T06:51:16;11.57;;;9.60;;
3311;SDS011;1668;49.648;8.570;2023-08-21T06:53:43;11.87;;;9.50;;
3311;SDS011;1668;49.648;8.570;2023-08-21T06:56:10;10.60;;;8.90;;
3311;SDS011;1668;49.648;8.570;2023-08-21T06:58:37;13.83;;;9.77;;
3311;SDS011;1668;49.648;8.570;2023-08-21T07:01:04;13.33;;;10.13;;
3311;SDS011;1668;49.648;8.570;2023-08-21T07:03:31;11.90;;;9.73;;
3311;SDS011;1668;49.648;8.570;2023-08-21T07:05:59;10.70;;;8.80;;
3311;SDS011;1668;49.648;8.570;2023-08-21T07:08:27;11.70;;;8.90;;
3311;SDS011;1668;49.648;8.570;2023-08-21T07:10:54;11.90;;;9.97;;
3311;SDS011;1668;49.648;8.570;2023-08-21T07:13:21;11.97;;;8.40;;
3311;SDS011;1668;49.648;8.570;2023-08-21T07:15:48;10.20;;;8.80;;
3311;SDS011;1668;49.648;8.570;2023-08-21T07:18:18;10.67;;;9.60;;
3311;SDS011;1668;49.648;8.570;2023-08-21T07:20:45;12.23;;;9.27;;
3311;SDS011;1668;49.648;8.570;2023-08-21T07:23:12;12.07;;;9.13;;
3311;SDS011;1668;49.648;8.570;2023-08-21T07:25:40;12.30;;;9.70;;
3311;SDS011;1668;49.648;8.570;2023-08-21T07:28:07;14.07;;;9.40;;
3311;SDS011;1668;49.648;8.570;2023-08-21T07:30:36;11.07;;;8.80;;
3311;SDS011;1668;49.648;8.570;2023-08-21T07:33:03;9.10;;;8.20;;
3311;SDS011;1668;49.648;8.570;2023-08-21T07:35:31;13.10;;;8.80;;
3311;SDS011;1668;49.648;8.570;2023-08-21T07:37:58;11.27;;;8.47;;
3311;SDS011;1668;49.648;8.570;2023-08-21T07:40:25;13.93;;;8.90;;
3311;SDS011;1668;49.648;8.570;2023-08-21T07:42:54;10.60;;;8.80;;
3311;SDS011;1668;49.648;8.570;2023-08-21T07:45:21;10.23;;;9.10;;
3311;SDS011;1668;49.648;8.570;2023-08-21T07:47:47;11.67;;;9.07;;
3311;SDS011;1668;49.648;8.570;2023-08-21T07:50:14;13.10;;;8.90;;
3311;SDS011;1668;49.648;8.570;2023-08-21T07:52:42;18.50;;;9.60;;
3311;SDS011;1668;49.648;8.570;2023-08-21T07:55:09;12.13;;;9.17;;
3311;SDS011;1668;49.648;8.570;2023-08-21T07:57:35;10.17;;;9.00;;
3311;SDS011;1668;49.648;8.570;2023-08-21T08:00:04;13.33;;;9.30;;
3311;SDS011;1668;49.648;8.570;2023-08-21T08:02:33;11.87;;;8.97;;
3311;SDS011;1668;49.648;8.570;2023-08-21T08:05:01;10.87;;;8.67;;
3311;SDS011;1668;49.648;8.570;2023-08-21T08:07:28;11.53;;;8.87;;
3311;SDS011;1668;49.648;8.570;2023-08-21T08:09:56;10.20;;;7.70;;
3311;SDS011;1668;49.648;8.570;2023-08-21T08:12:23;10.20;;;8.60;;
3311;SDS011;1668;49.648;8.570;2023-08-21T08:14:50;14.43;;;8.40;;
3311;SDS011;1668;49.648;8.570;2023-08-21T08:17:18;10.30;;;9.20;;
3311;SDS011;1668;49.648;8.570;2023-08-21T08:19:45;11.37;;;8.53;;
3311;SDS011;1668;49.648;8.570;2023-08-21T08:22:11;10.10;;;8.30;;
3311;SDS011;1668;49.648;8.570;2023-08-21T08:24:38;9.90;;;8.90;;
3311;SDS011;1668;49.648;8.570;2023-08-21T08:27:05;11.40;;;8.53;;
3311;SDS011;1668;49.648;8.570;2023-08-21T08:29:32;12.93;;;9.20;;
3311;SDS011;1668;49.648;8.570;2023-08-21T08:31:59;11.40;;;9.10;;
3311;SDS011;1668;49.648;8.570;2023-08-21T08:34:27;9.53;;;8.00;;
3311;SDS011;1668;49.648;8.570;2023-08-21T08:36:55;11.70;;;8.10;;
3311;SDS011;1668;49.648;8.570;2023-08-21T08:39:21;9.13;;;8.07;;
3311;SDS011;1668;49.648;8.570;2023-08-21T08:41:50;9.70;;;8.57;;
3311;SDS011;1668;49.648;8.570;2023-08-21T08:44:23;11.73;;;9.90;;
3311;SDS011;1668;49.648;8.570;2023-08-21T08:46:51;7.93;;;7.13;;
3311;SDS011;1668;49.648;8.570;2023-08-21T08:49:18;12.10;;;8.33;;
3311;SDS011;1668;49.648;8.570;2023-08-21T08:51:49;9.60;;;8.40;;
3311;SDS011;1668;49.648;8.570;2023-08-21T08:54:18;13.67;;;7.80;;
3311;SDS011;1668;49.648;8.570;2023-08-21T08:56:46;9.27;;;7.87;;
3311;SDS011;1668;49.648;8.570;2023-08-21T08:59:14;12.00;;;9.10;;
3311;SDS011;1668;49.648;8.570;2023-08-21T09:01:41;17.97;;;8.00;;
3311;SDS011;1668;49.648;8.570;2023-08-21T09:04:08;9.80;;;8.20;;
3311;SDS011;1668;49.648;8.570;2023-08-21T09:06:35;10.03;;;7.93;;
3311;SDS011;1668;49.648;8.570;2023-08-21T09:09:04;9.10;;;8.07;;
3311;SDS011;1668;49.648;8.570;2023-08-21T09:11:32;11.37;;;7.27;;
3311;SDS011;1668;49.648;8.570;2023-08-21T09:13:59;13.80;;;8.20;;
3311;SDS011;1668;49.648;8.570;2023-08-21T09:16:26;9.20;;;8.10;;
3311;SDS011;1668;49.648;8.570;2023-08-21T09:18:54;8.87;;;7.40;;
3311;SDS011;1668;49.648;8.570;2023-08-21T09:21:22;12.17;;;8.17;;
3311;SDS011;1668;49.648;8.570;2023-08-21T09:23:55;8.93;;;8.03;;
3311;SDS011;1668;49.648;8.570;2023-08-21T09:26:25;9.67;;;8.73;;
3311;SDS011;1668;49.648;8.570;2023-08-21T09:28:52;10.30;;;8.20;;
3311;SDS011;1668;49.648;8.570;2023-08-21T09:31:23;9.27;;;7.90;;
3311;SDS011;1668;49.648;8.570;2023-08-21T09:33:56;9.60;;;8.43;;
3311;SDS011;1668;49.648;8.570;2023-08-21T09:36:23;12.60;;;8.33;;
3311;SDS011;1668;49.648;8.570;2023-08-21T09:38:50;10.20;;;7.93;;
3311;SDS011;1668;49.648;8.570;2023-08-21T09:41:19;8.80;;;7.90;;
3311;SDS011;1668;49.648;8.570;2023-08-21T09:43:47;9.00;;;7.57;;
3311;SDS011;1668;49.648;8.570;2023-08-21T09:46:15;8.73;;;7.83;;
3311;SDS011;1668;49.648;8.570;2023-08-21T09:48:43;12.20;;;7.33;;
3311;SDS011;1668;49.648;8.570;2023-08-21T09:51:11;12.77;;;7.47;;
3311;SDS011;1668;49.648;8.570;2023-08-21T09:53:38;7.57;;;6.13;;
3311;SDS011;1668;49.648;8.570;2023-08-21T09:56:06;9.80;;;6.90;;
3311;SDS011;1668;49.648;8.570;2023-08-21T09:58:34;8.13;;;6.60;;
3311;SDS011;1668;49.648;8.570;2023-08-21T10:01:04;7.30;;;6.60;;
3311;SDS011;1668;49.648;8.570;2023-08-21T10:03:39;10.47;;;6.70;;
3311;SDS011;1668;49.648;8.570;2023-08-21T10:06:08;8.00;;;6.60;;
3311;SDS011;1668;49.648;8.570;2023-08-21T10:08:36;8.00;;;6.67;;
3311;SDS011;1668;49.648;8.570;2023-08-21T10:11:05;8.57;;;6.13;;
3311;SDS011;1668;49.648;8.570;2023-08-21T10:13:33;8.73;;;6.30;;
3311;SDS011;1668;49.648;8.570;2023-08-21T10:16:04;7.83;;;6.30;;
3311;SDS011;1668;49.648;8.570;2023-08-21T10:18:32;7.27;;;5.60;;
3311;SDS011;1668;49.648;8.570;2023-08-21T10:21:12;7.30;;;6.60;;
3311;SDS011;1668;49.648;8.570;2023-08-21T10:23:40;13.87;;;6.63;;
3311;SDS011;1668;49.648;8.570;2023-08-21T10:26:09;9.90;;;6.90;;
3311;SDS011;1668;49.648;8.570;2023-08-21T10:31:30;7.57;;;5.90;;
3311;SDS011;1668;49.648;8.570;2023-08-21T10:33:59;7.33;;;5.83;;
3311;SDS011;1668;49.648;8.570;2023-08-21T10:37:02;6.87;;;6.17;;
3311;SDS011;1668;49.648;8.570;2023-08-21T10:39:30;7.73;;;6.10;;
3311;SDS011;1668;49.648;8.570;2023-08-21T10:42:00;7.30;;;5.80;;
3311;SDS011;1668;49.648;8.570;2023-08-21T10:44:46;7.10;;;5.50;;
3311;SDS011;1668;49.648;8.570;2023-08-21T10:47:18;5.90;;;5.10;;
3311;SDS011;1668;49.648;8.570;2023-08-21T10:49:49;6.40;;;4.90;;
3311;SDS011;1668;49.648;8.570;2023-08-21T10:52:21;5.67;;;4.67;;
3311;SDS011;1668;49.648;8.570;2023-08-21T10:54:50;7.33;;;5.53;;
3311;SDS011;1668;49.648;8.570;2023-08-21T10:57:21;6.30;;;4.90;;
3311;SDS011;1668;49.648;8.570;2023-08-21T10:59:49;5.70;;;4.80;;
3311;SDS011;1668;49.648;8.570;2023-08-21T11:02:22;8.67;;;5.27;;
3311;SDS011;1668;49.648;8.570;2023-08-21T11:04:49;7.23;;;5.30;;
3311;SDS011;1668;49.648;8.570;2023-08-21T11:07:17;6.80;;;5.80;;
3311;SDS011;1668;49.648;8.570;2023-08-21T11:09:44;11.27;;;5.87;;
3311;SDS011;1668;49.648;8.570;2023-08-21T11:12:11;15.40;;;6.33;;
3311;SDS011;1668;49.648;8.570;2023-08-21T11:14:40;13.27;;;6.57;;
3311;SDS011;1668;49.648;8.570;2023-08-21T11:17:08;10.43;;;5.33;;
3311;SDS011;1668;49.648;8.570;2023-08-21T11:19:37;36.37;;;10.17;;
3311;SDS011;1668;49.648;8.570;2023-08-21T11:22:05;13.73;;;5.50;;
3311;SDS011;1668;49.648;8.570;2023-08-21T11:24:42;8.60;;;4.90;;
3311;SDS011;1668;49.648;8.570;2023-08-21T11:27:11;7.00;;;3.90;;
3311;SDS011;1668;49.648;8.570;2023-08-21T11:29:39;7.10;;;4.40;;
3311;SDS011;1668;49.648;8.570;2023-08-21T11:32:08;4.30;;;3.70;;
3311;SDS011;1668;49.648;8.570;2023-08-21T11:34:47;5.03;;;3.33;;
3311;SDS011;1668;49.648;8.570;2023-08-21T11:37:16;4.97;;;3.73;;
3311;SDS011;1668;49.648;8.570;2023-08-21T11:39:43;4.13;;;3.10;;
3311;SDS011;1668;49.648;8.570;2023-08-21T11:42:12;3.07;;;2.50;;
3311;SDS011;1668;49.648;8.570;2023-08-21T11:44:40;2.90;;;2.50;;
3311;SDS011;1668;49.648;8.570;2023-08-21T11:47:12;3.00;;;2.60;;
3311;SDS011;1668;49.648;8.570;2023-08-21T11:49:40;5.67;;;2.90;;
3311;SDS011;1668;49.648;8.570;2023-08-21T11:52:10;4.80;;;3.00;;
3311;SDS011;1668;49.648;8.570;2023-08-21T11:54:38;4.20;;;3.10;;
3311;SDS011;1668;49.648;8.570;2023-08-21T11:57:07;7.50;;;3.23;;
3311;SDS011;1668;49.648;8.570;2023-08-21T11:59:35;4.30;;;3.40;;
3311;SDS011;1668;49.648;8.570;2023-08-21T12:02:07;5.37;;;3.20;;
3311;SDS011;1668;49.648;8.570;2023-08-21T12:04:36;7.83;;;3.00;;
3311;SDS011;1668;49.648;8.570;2023-08-21T12:07:03;3.27;;;2.97;;
3311;SDS011;1668;49.648;8.570;2023-08-21T12:09:31;5.43;;;3.13;;
3311;SDS011;1668;49.648;8.570;2023-08-21T12:11:58;3.33;;;3.03;;
3311;SDS011;1668;49.648;8.570;2023-08-21T12:14:25;4.00;;;2.87;;
3311;SDS011;1668;49.648;8.570;2023-08-21T12:16:53;4.50;;;3.37;;
3311;SDS011;1668;49.648;8.570;2023-08-21T12:19:21;3.17;;;2.87;;
3311;SDS011;1668;49.648;8.570;2023-08-21T12:21:48;6.63;;;3.00;;
3311;SDS011;1668;49.648;8.570;2023-08-21T12:24:16;4.57;;;2.90;;
3311;SDS011;1668;49.648;8.570;2023-08-21T12:26:44;4.00;;;3.03;;
3311;SDS011;1668;49.648;8.570;2023-08-21T12:29:10;4.57;;;2.83;;
3311;SDS011;1668;49.648;8.570;2023-08-21T12:31:37;5.50;;;3.07;;
3311;SDS011;1668;49.648;8.570;2023-08-21T12:34:04;3.73;;;3.07;;
3311;SDS011;1668;49.648;8.570;2023-08-21T12:36:33;3.83;;;3.30;;
3311;SDS011;1668;49.648;8.570;2023-08-21T12:39:01;4.13;;;3.20;;
3311;SDS011;1668;49.648;8.570;2023-08-21T12:41:28;5.23;;;3.00;;
3311;SDS011;1668;49.648;8.570;2023-08-21T12:43:56;5.43;;;3.20;;
3311;SDS011;1668;49.648;8.570;2023-08-21T12:46:23;4.00;;;2.77;;
3311;SDS011;1668;49.648;8.570;2023-08-21T12:48:51;6.00;;;2.77;;
3311;SDS011;1668;49.648;8.570;2023-08-21T12:51:18;4.03;;;2.87;;
3311;SDS011;1668;49.648;8.570;2023-08-21T12:53:45;3.30;;;2.93;;
3311;SDS011;1668;49.648;8.570;2023-08-21T12:56:12;5.80;;;3.00;;
3311;SDS011;1668;49.648;8.570;2023-08-21T12:58:39;3.80;;;2.80;;
3311;SDS011;1668;49.648;8.570;2023-08-21T13:01:07;3.23;;;2.90;;
3311;SDS011;1668;49.648;8.570;2023-08-21T13:03:34;6.80;;;2.87;;
3311;SDS011;1668;49.648;8.570;2023-08-21T13:06:02;2.90;;;2.70;;
3311;SDS011;1668;49.648;8.570;2023-08-21T13:08:29;4.53;;;2.37;;
3311;SDS011;1668;49.648;8.570;2023-08-21T13:10:56;3.93;;;2.20;;
3311;SDS011;1668;49.648;8.570;2023-08-21T13:13:23;5.43;;;2.37;;
3311;SDS011;1668;49.648;8.570;2023-08-21T13:15:50;3.50;;;2.30;;
3311;SDS011;1668;49.648;8.570;2023-08-21T13:18:20;3.30;;;2.10;;
3311;SDS011;1668;49.648;8.570;2023-08-21T13:20:47;3.67;;;2.50;;
3311;SDS011;1668;49.648;8.570;2023-08-21T13:23:14;2.70;;;1.93;;
3311;SDS011;1668;49.648;8.570;2023-08-21T13:25:41;3.53;;;2.20;;
3311;SDS011;1668;49.648;8.570;2023-08-21T13:28:08;1.80;;;1.70;;
3311;SDS011;1668;49.648;8.570;2023-08-21T13:30:35;3.83;;;1.83;;
3311;SDS011;1668;49.648;8.570;2023-08-21T13:33:02;4.90;;;2.10;;
3311;SDS011;1668;49.648;8.570;2023-08-21T13:35:32;3.10;;;2.07;;
3311;SDS011;1668;49.648;8.570;2023-08-21T13:37:59;4.27;;;2.00;;
3311;SDS011;1668;49.648;8.570;2023-08-21T13:40:26;1.93;;;1.70;;
3311;SDS011;1668;49.648;8.570;2023-08-21T13:42:54;2.10;;;1.87;;
3311;SDS011;1668;49.648;8.570;2023-08-21T13:45:23;4.47;;;1.97;;
3311;SDS011;1668;49.648;8.570;2023-08-21T13:47:50;2.90;;;1.80;;
3311;SDS011;1668;49.648;8.570;2023-08-21T13:50:18;2.20;;;1.50;;
3311;SDS011;1668;49.648;8.570;2023-08-21T13:52:47;2.07;;;1.60;;
3311;SDS011;1668;49.648;8.570;2023-08-21T13:55:15;2.43;;;1.70;;
3311;SDS011;1668;49.648;8.570;2023-08-21T13:57:43;2.70;;;1.60;;
3311;SDS011;1668;49.648;8.570;2023-08-21T14:00:10;2.67;;;1.87;;
3311;SDS011;1668;49.648;8.570;2023-08-21T14:02:38;3.70;;;2.03;;
3311;SDS011;1668;49.648;8.570;2023-08-21T14:05:06;3.73;;;2.10;;
3311;SDS011;1668;49.648;8.570;2023-08-21T14:07:34;2.10;;;1.83;;
3311;SDS011;1668;49.648;8.570;2023-08-21T14:10:03;2.40;;;1.70;;
3311;SDS011;1668;49.648;8.570;2023-08-21T14:12:31;3.10;;;1.90;;
3311;SDS011;1668;49.648;8.570;2023-08-21T14:14:59;3.47;;;1.90;;
3311;SDS011;1668;49.648;8.570;2023-08-21T14:17:26;2.90;;;1.90;;
3311;SDS011;1668;49.648;8.570;2023-08-21T14:19:53;3.60;;;1.90;;
3311;SDS011;1668;49.648;8.570;2023-08-21T14:22:21;6.40;;;2.03;;
3311;SDS011;1668;49.648;8.570;2023-08-21T14:24:47;4.23;;;1.90;;
3311;SDS011;1668;49.648;8.570;2023-08-21T14:27:16;4.53;;;2.20;;
3311;SDS011;1668;49.648;8.570;2023-08-21T14:29:43;2.93;;;2.20;;
3311;SDS011;1668;49.648;8.570;2023-08-21T14:32:11;4.53;;;1.97;;
3311;SDS011;1668;49.648;8.570;2023-08-21T14:34:38;3.20;;;2.13;;
3311;SDS011;1668;49.648;8.570;2023-08-21T14:37:05;4.63;;;1.93;;
3311;SDS011;1668;49.648;8.570;2023-08-21T14:39:32;4.73;;;2.27;;
3311;SDS011;1668;49.648;8.570;2023-08-21T14:41:59;5.17;;;2.07;;
3311;SDS011;1668;49.648;8.570;2023-08-21T14:44:28;3.60;;;1.73;;
3311;SDS011;1668;49.648;8.570;2023-08-21T14:46:55;3.13;;;2.10;;
3311;SDS011;1668;49.648;8.570;2023-08-21T14:49:23;7.30;;;1.90;;
3311;SDS011;1668;49.648;8.570;2023-08-21T14:51:50;2.87;;;2.23;;
3311;SDS011;1668;49.648;8.570;2023-08-21T14:54:17;3.30;;;2.00;;
3311;SDS011;1668;49.648;8.570;2023-08-21T14:56:44;3.00;;;2.23;;
3311;SDS011;1668;49.648;8.570;2023-08-21T14:59:11;5.00;;;2.20;;
3311;SDS011;1668;49.648;8.570;2023-08-21T15:01:41;1.90;;;1.70;;
3311;SDS011;1668;49.648;8.570;2023-08-21T15:04:08;2.77;;;2.00;;
3311;SDS011;1668;49.648;8.570;2023-08-21T15:06:37;2.10;;;1.90;;
3311;SDS011;1668;49.648;8.570;2023-08-21T15:09:04;2.90;;;1.83;;
3311;SDS011;1668;49.648;8.570;2023-08-21T15:11:32;3.40;;;1.70;;
3311;SDS011;1668;49.648;8.570;2023-08-21T15:14:00;3.37;;;1.90;;
3311;SDS011;1668;49.648;8.570;2023-08-21T15:16:28;2.10;;;1.83;;